📊 Raw Sensor Data

Showing records 48526 to 48550 of 85,103 total

ID Distance (ft) Battery V Battery A Int Temp (°F) Int Humid (%) Ext Temp (°F) Solar V RSSI SNR Time Stamp
36590 -- 4.05 10 49 48 47 4.50 -86 8 04/01/2025 02:15 PM
36589 15.0 3.83 0 55 45 54 4.50 -83 7 04/01/2025 02:00 PM
36588 15.1 3.95 0 59 44 56 5.10 -80 8 04/01/2025 01:45 PM
36587 15.1 3.95 0 63 42 60 5.10 -81 7 04/01/2025 01:30 PM
36586 15.0 3.95 0 62 42 59 5.10 -86 8 04/01/2025 01:15 PM
36585 15.1 4.00 0 63 41 61 5.10 -82 8 04/01/2025 01:00 PM
36584 15.1 4.08 0 65 40 62 5.10 -84 8 04/01/2025 12:45 PM
36583 15.2 4.12 0 64 39 61 5.10 -82 7 04/01/2025 12:30 PM
36582 15.2 3.95 0 64 38 61 5.10 -83 8 04/01/2025 12:15 PM
36581 15.2 3.96 0 63 38 61 5.10 -78 8 04/01/2025 12:00 PM
36580 15.1 3.95 0 61 38 61 5.10 -83 8 04/01/2025 11:45 AM
36579 15.1 4.09 0 59 37 58 5.10 -84 8 04/01/2025 11:30 AM
36578 15.1 3.95 0 56 39 58 5.10 -80 7 04/01/2025 11:15 AM
36577 15.0 3.95 -5 51 40 53 5.10 -79 8 04/01/2025 11:00 AM
36576 15.0 3.95 0 50 40 50 5.10 -82 9 04/01/2025 10:45 AM
36575 15.0 3.96 -5 50 40 49 5.10 -79 8 04/01/2025 10:30 AM
36574 15.0 3.96 0 50 40 50 5.10 -83 8 04/01/2025 10:15 AM
36573 15.0 3.96 0 50 40 49 5.10 -79 8 04/01/2025 10:00 AM
36572 15.0 3.96 0 49 40 49 5.10 -80 7 04/01/2025 09:45 AM
36571 -- 3.96 0 49 40 48 5.10 -77 9 04/01/2025 09:30 AM
36570 15.0 3.98 0 49 40 48 5.10 -78 7 04/01/2025 09:15 AM
36569 15.0 3.97 0 48 40 48 5.10 -79 7 04/01/2025 09:00 AM
36568 15.0 3.99 16 48 40 48 4.50 -82 8 04/01/2025 08:45 AM
36567 15.0 3.97 0 48 40 48 5.00 -84 7 04/01/2025 08:30 AM
36566 14.9 4.07 29 47 40 47 4.50 -82 8 04/01/2025 08:15 AM